PWSweather.com
Personal Weather Stations
Station Observations

LlefiĆ BadalonaES

Lat: 41.44, Lon: 2.2175

Elevation: 213.254

Station Type: oregon WMR918

http://www.estacionmeteorologicabadalonallefia.com

Latest ConditionsUpdated 6:45:01 PM GMT+01:01 Friday, Dec 2, 2016
Currently Today's Max Today's Min Today's Average
Temperature 55.2°F12.9°C 61.6°F16.4°C 39.7°F4.3°C 49.5°F9.7°C
Dew Point 37.4°F3.0°C 41.8°F5.4°C 27.5°F-2.5°C 35.7°F2.1°C
Winds Calm Calm 9.2 mph NW14.8 kmh NW - 5.0 mph 8.0 kmh
Wind Gusts -- 16.1 mph25.9 kmh - -
Humidity 51% 87% 31% 63%
Pressure 29.94 in1013.9 mb 30.18 in1022.0 mb 29.94 in1013.9 mb -
Hour Temp Dew Point Humidity Winds Wind Gusts Pressure Precip Precip Rate Daily Precip Total
06:45 PM 55.2°F12.9°C 37.4°F3.0°C 51% Calm Calm -- 29.94 in1013.9 mb - 0.00 in0.0 mm 0.00 in0.0 mm
06:30 PM 55.9°F13.3°C 37.6°F3.1°C 50% Calm Calm -- 29.94 in1013.9 mb - 0.00 in0.0 mm 0.00 in0.0 mm
06:15 PM 56.7°F13.7°C 38.2°F3.4°C 50% 3.5 mph NNW5.6 kmh NNW 6.9 mph11.1 kmh 29.94 in1013.9 mb - 0.00 in0.0 mm 0.00 in0.0 mm
06:00 PM 57.4°F14.1°C 38.4°F3.6°C 49% Calm Calm -- 29.94 in1013.9 mb - 0.00 in0.0 mm 0.00 in0.0 mm
05:45 PM 57.8°F14.3°C 38.8°F3.8°C 49% Calm Calm -- 29.94 in1013.9 mb - 0.00 in0.0 mm 0.00 in0.0 mm
05:30 PM 58.3°F14.6°C 39.2°F4.0°C 49% Calm Calm 3.5 mph5.6 kmh 29.94 in1013.9 mb - 0.00 in0.0 mm 0.00 in0.0 mm
05:15 PM 58.8°F14.9°C 38.1°F3.4°C 46% Calm Calm -- 29.94 in1013.9 mb - 0.00 in0.0 mm 0.00 in0.0 mm
05:00 PM 59.4°F15.2°C 36.8°F2.7°C 43% 3.5 mph WSW5.6 kmh WSW 8.1 mph13.0 kmh 29.97 in1014.9 mb - 0.00 in0.0 mm 0.00 in0.0 mm
04:45 PM 60.1°F15.6°C 35.7°F2.1°C 40% 1.2 mph WSW1.9 kmh WSW 6.9 mph11.1 kmh 29.94 in1013.9 mb - 0.00 in0.0 mm 0.00 in0.0 mm
04:30 PM 60.5°F15.8°C 35.4°F1.9°C 39% 3.5 mph W5.6 kmh W 8.1 mph13.0 kmh 29.97 in1014.9 mb - 0.00 in0.0 mm 0.00 in0.0 mm
04:15 PM 60.7°F15.9°C 33.6°F0.9°C 36% 1.2 mph WNW1.9 kmh WNW 5.8 mph9.3 kmh 29.97 in1014.9 mb - 0.00 in0.0 mm 0.00 in0.0 mm
04:00 PM 61.0°F16.1°C 33.1°F0.6°C 35% 3.5 mph WNW5.6 kmh WNW 8.1 mph13.0 kmh 29.97 in1014.9 mb - 0.00 in0.0 mm 0.00 in0.0 mm
03:45 PM 61.0°F16.1°C 33.1°F0.6°C 35% 2.3 mph W3.7 kmh W 4.6 mph7.4 kmh 29.97 in1014.9 mb - 0.00 in0.0 mm 0.00 in0.0 mm
03:30 PM 61.0°F16.1°C 33.1°F0.6°C 35% 4.6 mph W7.4 kmh W 8.1 mph13.0 kmh 29.97 in1014.9 mb - 0.00 in0.0 mm 0.00 in0.0 mm
03:15 PM 61.3°F16.3°C 31.2°F-0.4°C 32% 3.5 mph WSW5.6 kmh WSW 4.6 mph7.4 kmh 29.97 in1014.9 mb - 0.00 in0.0 mm 0.00 in0.0 mm
03:00 PM 61.6°F16.4°C 30.6°F-0.8°C 31% Calm Calm 4.6 mph7.4 kmh 29.97 in1014.9 mb - 0.00 in0.0 mm 0.00 in0.0 mm
02:45 PM 60.8°F16.0°C 29.9°F-1.2°C 31% Calm Calm 3.5 mph5.6 kmh 29.97 in1014.9 mb - 0.00 in0.0 mm 0.00 in0.0 mm
02:30 PM 59.5°F15.3°C 29.6°F-1.3°C 32% 3.5 mph NW5.6 kmh NW 3.5 mph5.6 kmh 30.00 in1015.9 mb - 0.00 in0.0 mm 0.00 in0.0 mm
02:15 PM 59.0°F15.0°C 29.1°F-1.6°C 32% 6.9 mph NW11.1 kmh NW 12.7 mph20.4 kmh 30.00 in1015.9 mb - 0.00 in0.0 mm 0.00 in0.0 mm
02:00 PM 58.5°F14.7°C 28.7°F-1.8°C 32% 5.8 mph NW9.3 kmh NW 6.9 mph11.1 kmh 30.00 in1015.9 mb - 0.00 in0.0 mm 0.00 in0.0 mm
01:45 PM 57.9°F14.4°C 28.2°F-2.1°C 32% 4.6 mph NW7.4 kmh NW 10.4 mph16.7 kmh 30.00 in1015.9 mb - 0.00 in0.0 mm 0.00 in0.0 mm
01:30 PM 57.4°F14.1°C 27.7°F-2.4°C 32% 5.8 mph NNW9.3 kmh NNW 9.2 mph14.8 kmh 30.00 in1015.9 mb - 0.00 in0.0 mm 0.00 in0.0 mm
01:15 PM 57.1°F13.9°C 27.5°F-2.5°C 32% 3.5 mph N5.6 kmh N 8.1 mph13.0 kmh 30.03 in1016.9 mb - 0.00 in0.0 mm 0.00 in0.0 mm
01:00 PM 56.5°F13.6°C 29.8°F-1.2°C 36% 3.5 mph NNW5.6 kmh NNW 5.8 mph9.3 kmh 30.03 in1016.9 mb - 0.00 in0.0 mm 0.00 in0.0 mm
12:45 PM 55.8°F13.2°C 30.5°F-0.8°C 38% 1.2 mph NW1.9 kmh NW 4.6 mph7.4 kmh 30.03 in1016.9 mb - 0.00 in0.0 mm 0.00 in0.0 mm
12:30 PM 54.5°F12.5°C 30.0°F-1.1°C 39% 4.6 mph NW7.4 kmh NW 6.9 mph11.1 kmh 30.06 in1017.9 mb - 0.00 in0.0 mm 0.00 in0.0 mm
12:15 PM 53.3°F11.8°C 30.8°F-0.7°C 42% 3.5 mph NNW5.6 kmh NNW 10.4 mph16.7 kmh 30.06 in1017.9 mb - 0.00 in0.0 mm 0.00 in0.0 mm
12:00 PM 52.2°F11.2°C 32.0°F0.0°C 46% 4.6 mph NW7.4 kmh NW 6.9 mph11.1 kmh 30.06 in1017.9 mb - 0.00 in0.0 mm 0.00 in0.0 mm
11:45 AM 50.7°F10.4°C 33.2°F0.7°C 51% 5.8 mph NW9.3 kmh NW 8.1 mph13.0 kmh 30.06 in1017.9 mb - 0.00 in0.0 mm 0.00 in0.0 mm
11:30 AM 49.6°F9.8°C 33.6°F0.9°C 54% 5.8 mph NW9.3 kmh NW 11.5 mph18.5 kmh 30.06 in1017.9 mb - 0.00 in0.0 mm 0.00 in0.0 mm
11:15 AM 48.4°F9.1°C 33.8°F1.0°C 57% 6.9 mph NNW11.1 kmh NNW 12.7 mph20.4 kmh 30.09 in1019.0 mb - 0.00 in0.0 mm 0.00 in0.0 mm
11:00 AM 47.7°F8.7°C 33.6°F0.9°C 58% 6.9 mph NW11.1 kmh NW 13.8 mph22.2 kmh 30.09 in1019.0 mb - 0.00 in0.0 mm 0.00 in0.0 mm
10:45 AM 47.7°F8.7°C 32.8°F0.4°C 56% 5.8 mph NW9.3 kmh NW 10.4 mph16.7 kmh 30.09 in1019.0 mb - 0.00 in0.0 mm 0.00 in0.0 mm
10:30 AM 46.8°F8.2°C 32.8°F0.4°C 58% 8.1 mph NW13.0 kmh NW 13.8 mph22.2 kmh 30.09 in1019.0 mb - 0.00 in0.0 mm 0.00 in0.0 mm
10:15 AM 45.7°F7.6°C 34.6°F1.4°C 65% 8.1 mph NW13.0 kmh NW 15.0 mph24.1 kmh 30.09 in1019.0 mb - 0.00 in0.0 mm 0.00 in0.0 mm
10:00 AM 44.8°F7.1°C 34.9°F1.6°C 68% 3.5 mph NW5.6 kmh NW 8.1 mph13.0 kmh 30.09 in1019.0 mb - 0.00 in0.0 mm 0.00 in0.0 mm
09:45 AM 43.3°F6.3°C 34.6°F1.4°C 71% 5.8 mph NW9.3 kmh NW 10.4 mph16.7 kmh 30.09 in1019.0 mb - 0.00 in0.0 mm 0.00 in0.0 mm
09:30 AM 42.4°F5.8°C 34.7°F1.5°C 74% 4.6 mph NW7.4 kmh NW 11.5 mph18.5 kmh 30.09 in1019.0 mb - 0.00 in0.0 mm 0.00 in0.0 mm
09:15 AM 41.7°F5.4°C 34.7°F1.5°C 76% 5.8 mph NW9.3 kmh NW 10.4 mph16.7 kmh 30.09 in1019.0 mb - 0.00 in0.0 mm 0.00 in0.0 mm
09:00 AM 40.7°F4.8°C 35.0°F1.7°C 80% 6.9 mph NNW11.1 kmh NNW 13.8 mph22.2 kmh 30.09 in1019.0 mb - 0.00 in0.0 mm 0.00 in0.0 mm
08:45 AM 40.0°F4.4°C 35.3°F1.8°C 83% 8.1 mph NW13.0 kmh NW 13.8 mph22.2 kmh 30.09 in1019.0 mb - 0.00 in0.0 mm 0.00 in0.0 mm
08:30 AM 39.7°F4.3°C 34.7°F1.5°C 82% 6.9 mph NW11.1 kmh NW 13.8 mph22.2 kmh 30.09 in1019.0 mb - 0.00 in0.0 mm 0.00 in0.0 mm
08:15 AM 40.3°F4.6°C 34.3°F1.3°C 79% 9.2 mph NW14.8 kmh NW 12.7 mph20.4 kmh 30.09 in1019.0 mb - 0.00 in0.0 mm 0.00 in0.0 mm
08:00 AM 41.1°F5.1°C 35.0°F1.7°C 79% 8.1 mph NW13.0 kmh NW 16.1 mph25.9 kmh 30.09 in1019.0 mb - 0.00 in0.0 mm 0.00 in0.0 mm
07:45 AM 41.5°F5.3°C 36.5°F2.5°C 82% 6.9 mph NW11.1 kmh NW 10.4 mph16.7 kmh 30.09 in1019.0 mb - 0.00 in0.0 mm 0.00 in0.0 mm
07:30 AM 41.0°F5.0°C 36.5°F2.5°C 84% 3.5 mph NW5.6 kmh NW 5.8 mph9.3 kmh 30.09 in1019.0 mb - 0.00 in0.0 mm 0.00 in0.0 mm
07:15 AM 41.2°F5.1°C 36.7°F2.6°C 84% 9.2 mph NNW14.8 kmh NNW 16.1 mph25.9 kmh 30.09 in1019.0 mb - 0.00 in0.0 mm 0.00 in0.0 mm
07:00 AM 41.4°F5.2°C 36.9°F2.7°C 84% 5.8 mph NW9.3 kmh NW 11.5 mph18.5 kmh 30.09 in1019.0 mb - 0.00 in0.0 mm 0.00 in0.0 mm
06:45 AM 41.7°F5.4°C 36.6°F2.6°C 82% 4.6 mph NW7.4 kmh NW 10.4 mph16.7 kmh 30.09 in1019.0 mb - 0.00 in0.0 mm 0.00 in0.0 mm
06:30 AM 42.3°F5.7°C 36.8°F2.7°C 81% 9.2 mph NW14.8 kmh NW 12.7 mph20.4 kmh 30.09 in1019.0 mb - 0.00 in0.0 mm 0.00 in0.0 mm
06:15 AM 42.4°F5.8°C 37.3°F2.9°C 82% 5.8 mph NW9.3 kmh NW 10.4 mph16.7 kmh 30.09 in1019.0 mb - 0.00 in0.0 mm 0.00 in0.0 mm
06:00 AM 42.6°F5.9°C 36.9°F2.7°C 80% 9.2 mph NW14.8 kmh NW 13.8 mph22.2 kmh 30.09 in1019.0 mb - 0.00 in0.0 mm 0.00 in0.0 mm
05:45 AM 43.0°F6.1°C 36.9°F2.7°C 79% 6.9 mph NW11.1 kmh NW 10.4 mph16.7 kmh 30.09 in1019.0 mb - 0.00 in0.0 mm 0.00 in0.0 mm
05:30 AM 43.2°F6.2°C 37.1°F2.8°C 79% 6.9 mph NW11.1 kmh NW 10.4 mph16.7 kmh 30.09 in1019.0 mb - 0.00 in0.0 mm 0.00 in0.0 mm
05:15 AM 43.7°F6.5°C 37.6°F3.1°C 79% 6.9 mph NW11.1 kmh NW 12.7 mph20.4 kmh 30.12 in1020.0 mb - 0.00 in0.0 mm 0.00 in0.0 mm
05:00 AM 43.5°F6.4°C 37.8°F3.2°C 80% 6.9 mph NW11.1 kmh NW 12.7 mph20.4 kmh 30.12 in1020.0 mb - 0.00 in0.0 mm 0.00 in0.0 mm
04:45 AM 43.5°F6.4°C 37.4°F3.0°C 79% 8.1 mph NW13.0 kmh NW 13.8 mph22.2 kmh 30.12 in1020.0 mb - 0.00 in0.0 mm 0.00 in0.0 mm
04:30 AM 44.1°F6.7°C 38.0°F3.3°C 79% 6.9 mph NNW11.1 kmh NNW 11.5 mph18.5 kmh 30.12 in1020.0 mb - 0.00 in0.0 mm 0.00 in0.0 mm
04:15 AM 45.3°F7.4°C 38.2°F3.4°C 76% 4.6 mph NW7.4 kmh NW 10.4 mph16.7 kmh 30.12 in1020.0 mb - 0.00 in0.0 mm 0.00 in0.0 mm
04:00 AM 45.3°F7.4°C 38.5°F3.6°C 77% 4.6 mph NW7.4 kmh NW 10.4 mph16.7 kmh 30.12 in1020.0 mb - 0.00 in0.0 mm 0.00 in0.0 mm
03:45 AM 45.3°F7.4°C 39.2°F4.0°C 79% 4.6 mph NNW7.4 kmh NNW 8.1 mph13.0 kmh 30.12 in1020.0 mb - 0.00 in0.0 mm 0.00 in0.0 mm
03:30 AM 44.8°F7.1°C 39.3°F4.1°C 81% 4.6 mph NW7.4 kmh NW 11.5 mph18.5 kmh 30.15 in1021.0 mb - 0.00 in0.0 mm 0.00 in0.0 mm
03:15 AM 44.8°F7.1°C 39.3°F4.1°C 81% 8.1 mph NW13.0 kmh NW 11.5 mph18.5 kmh 30.15 in1021.0 mb - 0.00 in0.0 mm 0.00 in0.0 mm
03:00 AM 44.8°F7.1°C 39.9°F4.4°C 83% 6.9 mph NW11.1 kmh NW 13.8 mph22.2 kmh 30.15 in1021.0 mb - 0.00 in0.0 mm 0.00 in0.0 mm
02:45 AM 44.8°F7.1°C 39.9°F4.4°C 83% 4.6 mph NW7.4 kmh NW 9.2 mph14.8 kmh 30.15 in1021.0 mb - 0.00 in0.0 mm 0.00 in0.0 mm
02:30 AM 44.8°F7.1°C 40.8°F4.9°C 86% 6.9 mph NW11.1 kmh NW 10.4 mph16.7 kmh 30.15 in1021.0 mb - 0.00 in0.0 mm 0.00 in0.0 mm
02:15 AM 44.2°F6.8°C 40.6°F4.8°C 87% 9.2 mph NW14.8 kmh NW 11.5 mph18.5 kmh 30.15 in1021.0 mb - 0.00 in0.0 mm 0.00 in0.0 mm
02:00 AM 44.4°F6.9°C 40.4°F4.7°C 86% 6.9 mph NNW11.1 kmh NNW 13.8 mph22.2 kmh 30.15 in1021.0 mb - 0.00 in0.0 mm 0.00 in0.0 mm
01:45 AM 45.1°F7.3°C 40.3°F4.6°C 83% 6.9 mph NW11.1 kmh NW 12.7 mph20.4 kmh 30.15 in1021.0 mb - 0.00 in0.0 mm 0.00 in0.0 mm
01:30 AM 46.2°F7.9°C 40.7°F4.8°C 81% 1.2 mph WNW1.9 kmh WNW 4.6 mph7.4 kmh 30.18 in1022.0 mb - 0.00 in0.0 mm 0.00 in0.0 mm
01:15 AM 46.6°F8.1°C 40.8°F4.9°C 80% 4.6 mph NW7.4 kmh NW 10.4 mph16.7 kmh 30.18 in1022.0 mb - 0.00 in0.0 mm 0.00 in0.0 mm
01:00 AM 47.3°F8.5°C 40.5°F4.7°C 77% 6.9 mph NNW11.1 kmh NNW 10.4 mph16.7 kmh 30.18 in1022.0 mb - 0.00 in0.0 mm 0.00 in0.0 mm
12:45 AM 48.1°F8.9°C 40.6°F4.8°C 75% 4.6 mph NW7.4 kmh NW 9.2 mph14.8 kmh 30.18 in1022.0 mb - 0.00 in0.0 mm 0.00 in0.0 mm
12:30 AM 48.4°F9.1°C 40.8°F4.9°C 75% 5.8 mph NW9.3 kmh NW 10.4 mph16.7 kmh 30.18 in1022.0 mb - 0.00 in0.0 mm 0.00 in0.0 mm
12:15 AM 48.6°F9.2°C 41.0°F5.0°C 75% 5.8 mph NNW9.3 kmh NNW 8.1 mph13.0 kmh 30.18 in1022.0 mb - 0.00 in0.0 mm 0.00 in0.0 mm
12:00 AM 48.7°F9.3°C 41.8°F5.4°C 77% 4.6 mph NW7.4 kmh NW 8.1 mph13.0 kmh 30.18 in1022.0 mb - 0.00 in0.0 mm 0.00 in0.0 mm